sensor_id;sensor_type;location;lat;lon;timestamp;temperature;humidity
31819;DHT22;18384;48.860;9.188;2022-08-21T00:00:19;19.30;91.50
31819;DHT22;18384;48.860;9.188;2022-08-21T00:02:52;19.30;91.60
31819;DHT22;18384;48.860;9.188;2022-08-21T00:05:22;19.30;91.80
31819;DHT22;18384;48.860;9.188;2022-08-21T00:07:48;19.30;92.10
31819;DHT22;18384;48.860;9.188;2022-08-21T00:10:14;19.40;92.60
31819;DHT22;18384;48.860;9.188;2022-08-21T00:12:42;19.20;91.90
31819;DHT22;18384;48.860;9.188;2022-08-21T00:15:10;19.20;91.80
31819;DHT22;18384;48.860;9.188;2022-08-21T00:17:38;19.20;91.60
31819;DHT22;18384;48.860;9.188;2022-08-21T00:20:07;19.20;91.90
31819;DHT22;18384;48.860;9.188;2022-08-21T00:22:36;19.20;91.70
31819;DHT22;18384;48.860;9.188;2022-08-21T00:25:04;19.20;92.10
31819;DHT22;18384;48.860;9.188;2022-08-21T00:27:33;19.10;92.20
31819;DHT22;18384;48.860;9.188;2022-08-21T00:29:59;19.10;92.50
31819;DHT22;18384;48.860;9.188;2022-08-21T00:32:27;19.10;92.40
31819;DHT22;18384;48.860;9.188;2022-08-21T00:34:54;19.10;92.50
31819;DHT22;18384;48.860;9.188;2022-08-21T00:37:20;19.00;92.80
31819;DHT22;18384;48.860;9.188;2022-08-21T00:39:47;19.00;92.80
31819;DHT22;18384;48.860;9.188;2022-08-21T00:42:14;18.90;92.80
31819;DHT22;18384;48.860;9.188;2022-08-21T00:44:44;18.90;92.30
31819;DHT22;18384;48.860;9.188;2022-08-21T00:47:11;19.00;92.80
31819;DHT22;18384;48.860;9.188;2022-08-21T00:49:38;18.90;92.80
31819;DHT22;18384;48.860;9.188;2022-08-21T00:52:09;18.90;93.00
31819;DHT22;18384;48.860;9.188;2022-08-21T00:54:39;18.90;92.80
31819;DHT22;18384;48.860;9.188;2022-08-21T00:57:14;18.90;93.00
31819;DHT22;18384;48.860;9.188;2022-08-21T00:59:46;18.90;92.60
31819;DHT22;18384;48.860;9.188;2022-08-21T01:02:15;18.80;93.00
31819;DHT22;18384;48.860;9.188;2022-08-21T01:04:42;18.80;93.20
31819;DHT22;18384;48.860;9.188;2022-08-21T01:07:08;18.80;93.20
31819;DHT22;18384;48.860;9.188;2022-08-21T01:09:35;18.80;93.40
31819;DHT22;18384;48.860;9.188;2022-08-21T01:12:02;18.80;92.60
31819;DHT22;18384;48.860;9.188;2022-08-21T01:14:29;18.70;92.70
31819;DHT22;18384;48.860;9.188;2022-08-21T01:16:56;18.70;92.80
31819;DHT22;18384;48.860;9.188;2022-08-21T01:19:24;18.70;93.10
31819;DHT22;18384;48.860;9.188;2022-08-21T01:21:51;18.60;92.90
31819;DHT22;18384;48.860;9.188;2022-08-21T01:24:19;18.60;93.30
31819;DHT22;18384;48.860;9.188;2022-08-21T01:26:46;18.60;93.60
31819;DHT22;18384;48.860;9.188;2022-08-21T01:29:14;18.60;93.40
31819;DHT22;18384;48.860;9.188;2022-08-21T01:31:46;18.60;93.40
31819;DHT22;18384;48.860;9.188;2022-08-21T01:34:12;18.60;93.30
31819;DHT22;18384;48.860;9.188;2022-08-21T01:36:38;18.60;93.20
31819;DHT22;18384;48.860;9.188;2022-08-21T01:39:05;18.60;93.20
31819;DHT22;18384;48.860;9.188;2022-08-21T01:41:31;18.50;93.10
31819;DHT22;18384;48.860;9.188;2022-08-21T01:43:57;18.50;93.00
31819;DHT22;18384;48.860;9.188;2022-08-21T01:46:23;18.50;92.90
31819;DHT22;18384;48.860;9.188;2022-08-21T01:48:49;18.50;93.00
31819;DHT22;18384;48.860;9.188;2022-08-21T01:51:15;18.40;93.30
31819;DHT22;18384;48.860;9.188;2022-08-21T01:53:41;18.40;92.70
31819;DHT22;18384;48.860;9.188;2022-08-21T01:56:09;18.40;93.20
31819;DHT22;18384;48.860;9.188;2022-08-21T01:58:36;18.40;92.90
31819;DHT22;18384;48.860;9.188;2022-08-21T02:01:03;18.40;92.70
31819;DHT22;18384;48.860;9.188;2022-08-21T02:03:30;18.40;92.70
31819;DHT22;18384;48.860;9.188;2022-08-21T02:05:56;18.30;92.50
31819;DHT22;18384;48.860;9.188;2022-08-21T02:08:22;18.30;92.10
31819;DHT22;18384;48.860;9.188;2022-08-21T02:10:50;18.30;92.30
31819;DHT22;18384;48.860;9.188;2022-08-21T02:13:17;18.30;92.50
31819;DHT22;18384;48.860;9.188;2022-08-21T02:15:44;18.20;92.60
31819;DHT22;18384;48.860;9.188;2022-08-21T02:18:10;18.40;92.90
31819;DHT22;18384;48.860;9.188;2022-08-21T02:20:40;18.30;93.10
31819;DHT22;18384;48.860;9.188;2022-08-21T02:23:10;18.20;93.50
31819;DHT22;18384;48.860;9.188;2022-08-21T02:25:38;18.20;93.70
31819;DHT22;18384;48.860;9.188;2022-08-21T02:28:10;18.10;93.90
31819;DHT22;18384;48.860;9.188;2022-08-21T02:30:45;18.20;93.80
31819;DHT22;18384;48.860;9.188;2022-08-21T02:33:13;18.20;93.70
31819;DHT22;18384;48.860;9.188;2022-08-21T02:35:41;18.10;93.80
31819;DHT22;18384;48.860;9.188;2022-08-21T02:38:12;18.20;94.00
31819;DHT22;18384;48.860;9.188;2022-08-21T02:40:41;18.10;94.00
31819;DHT22;18384;48.860;9.188;2022-08-21T02:43:10;18.10;93.90
31819;DHT22;18384;48.860;9.188;2022-08-21T02:45:37;18.10;94.10
31819;DHT22;18384;48.860;9.188;2022-08-21T02:48:07;18.00;94.10
31819;DHT22;18384;48.860;9.188;2022-08-21T02:50:41;18.00;94.20
31819;DHT22;18384;48.860;9.188;2022-08-21T02:53:14;18.00;94.20
31819;DHT22;18384;48.860;9.188;2022-08-21T02:55:44;18.00;94.50
31819;DHT22;18384;48.860;9.188;2022-08-21T02:58:13;18.00;94.70
31819;DHT22;18384;48.860;9.188;2022-08-21T03:00:42;18.00;94.80
31819;DHT22;18384;48.860;9.188;2022-08-21T03:03:09;17.90;94.50
31819;DHT22;18384;48.860;9.188;2022-08-21T03:05:36;17.90;95.00
31819;DHT22;18384;48.860;9.188;2022-08-21T03:08:08;18.00;94.90
31819;DHT22;18384;48.860;9.188;2022-08-21T03:10:38;17.90;95.00
31819;DHT22;18384;48.860;9.188;2022-08-21T03:13:08;17.80;95.20
31819;DHT22;18384;48.860;9.188;2022-08-21T03:15:35;17.90;95.40
31819;DHT22;18384;48.860;9.188;2022-08-21T03:18:03;17.80;95.40
31819;DHT22;18384;48.860;9.188;2022-08-21T03:20:30;17.90;95.50
31819;DHT22;18384;48.860;9.188;2022-08-21T03:22:58;17.80;95.50
31819;DHT22;18384;48.860;9.188;2022-08-21T03:25:27;17.90;95.40
31819;DHT22;18384;48.860;9.188;2022-08-21T03:27:53;17.80;95.50
31819;DHT22;18384;48.860;9.188;2022-08-21T03:30:21;17.80;95.30
31819;DHT22;18384;48.860;9.188;2022-08-21T03:32:48;17.80;95.30
31819;DHT22;18384;48.860;9.188;2022-08-21T03:35:14;17.80;95.50
31819;DHT22;18384;48.860;9.188;2022-08-21T03:37:41;17.70;95.50
31819;DHT22;18384;48.860;9.188;2022-08-21T03:40:07;17.70;95.50
31819;DHT22;18384;48.860;9.188;2022-08-21T03:42:34;17.70;95.40
31819;DHT22;18384;48.860;9.188;2022-08-21T03:45:01;17.70;95.60
31819;DHT22;18384;48.860;9.188;2022-08-21T03:47:27;17.70;95.50
31819;DHT22;18384;48.860;9.188;2022-08-21T03:49:53;17.70;95.70
31819;DHT22;18384;48.860;9.188;2022-08-21T03:52:19;17.70;95.80
31819;DHT22;18384;48.860;9.188;2022-08-21T03:54:46;17.60;95.70
31819;DHT22;18384;48.860;9.188;2022-08-21T03:57:12;17.60;96.00
31819;DHT22;18384;48.860;9.188;2022-08-21T03:59:38;17.60;95.90
31819;DHT22;18384;48.860;9.188;2022-08-21T04:02:06;17.50;95.90
31819;DHT22;18384;48.860;9.188;2022-08-21T04:04:33;17.50;96.10
31819;DHT22;18384;48.860;9.188;2022-08-21T04:07:00;17.50;96.00
31819;DHT22;18384;48.860;9.188;2022-08-21T04:09:27;17.50;96.00
31819;DHT22;18384;48.860;9.188;2022-08-21T04:11:53;17.50;96.10
31819;DHT22;18384;48.860;9.188;2022-08-21T04:14:20;17.50;96.10
31819;DHT22;18384;48.860;9.188;2022-08-21T04:16:46;17.50;96.10
31819;DHT22;18384;48.860;9.188;2022-08-21T04:19:13;17.50;96.30
31819;DHT22;18384;48.860;9.188;2022-08-21T04:21:40;17.50;96.30
31819;DHT22;18384;48.860;9.188;2022-08-21T04:24:09;17.40;96.40
31819;DHT22;18384;48.860;9.188;2022-08-21T04:26:37;17.40;96.30
31819;DHT22;18384;48.860;9.188;2022-08-21T04:29:05;17.40;96.30
31819;DHT22;18384;48.860;9.188;2022-08-21T04:31:34;17.40;96.30
31819;DHT22;18384;48.860;9.188;2022-08-21T04:34:03;17.40;96.30
31819;DHT22;18384;48.860;9.188;2022-08-21T04:36:30;17.40;96.30
31819;DHT22;18384;48.860;9.188;2022-08-21T04:38:57;17.40;96.20
31819;DHT22;18384;48.860;9.188;2022-08-21T04:41:24;17.40;96.30
31819;DHT22;18384;48.860;9.188;2022-08-21T04:43:51;17.40;96.30
31819;DHT22;18384;48.860;9.188;2022-08-21T04:46:17;17.40;96.40
31819;DHT22;18384;48.860;9.188;2022-08-21T04:48:44;17.40;96.30
31819;DHT22;18384;48.860;9.188;2022-08-21T04:51:15;17.40;96.40
31819;DHT22;18384;48.860;9.188;2022-08-21T04:53:54;17.50;96.40
31819;DHT22;18384;48.860;9.188;2022-08-21T04:56:45;17.50;96.40
31819;DHT22;18384;48.860;9.188;2022-08-21T04:59:17;17.50;96.40
31819;DHT22;18384;48.860;9.188;2022-08-21T05:01:46;17.60;96.40
31819;DHT22;18384;48.860;9.188;2022-08-21T05:04:15;17.70;96.30
31819;DHT22;18384;48.860;9.188;2022-08-21T05:06:46;17.60;96.20
31819;DHT22;18384;48.860;9.188;2022-08-21T05:09:16;17.70;96.40
31819;DHT22;18384;48.860;9.188;2022-08-21T05:11:44;17.80;96.20
31819;DHT22;18384;48.860;9.188;2022-08-21T05:14:12;17.70;96.10
31819;DHT22;18384;48.860;9.188;2022-08-21T05:16:38;17.70;96.10
31819;DHT22;18384;48.860;9.188;2022-08-21T05:19:06;17.70;95.90
31819;DHT22;18384;48.860;9.188;2022-08-21T05:21:34;17.80;95.60
31819;DHT22;18384;48.860;9.188;2022-08-21T05:24:01;17.80;95.80
31819;DHT22;18384;48.860;9.188;2022-08-21T05:26:27;17.80;95.60
31819;DHT22;18384;48.860;9.188;2022-08-21T05:28:53;17.90;95.60
31819;DHT22;18384;48.860;9.188;2022-08-21T05:31:19;18.00;95.30
31819;DHT22;18384;48.860;9.188;2022-08-21T05:33:45;18.00;95.50
31819;DHT22;18384;48.860;9.188;2022-08-21T05:36:12;18.00;95.60
31819;DHT22;18384;48.860;9.188;2022-08-21T05:38:38;18.10;95.50
31819;DHT22;18384;48.860;9.188;2022-08-21T05:41:04;18.00;95.20
31819;DHT22;18384;48.860;9.188;2022-08-21T05:43:30;18.10;95.50
31819;DHT22;18384;48.860;9.188;2022-08-21T05:45:58;18.20;95.20
31819;DHT22;18384;48.860;9.188;2022-08-21T05:48:24;18.20;95.40
31819;DHT22;18384;48.860;9.188;2022-08-21T05:50:51;18.30;95.30
31819;DHT22;18384;48.860;9.188;2022-08-21T05:53:19;18.30;95.10
31819;DHT22;18384;48.860;9.188;2022-08-21T05:55:48;18.30;95.20
31819;DHT22;18384;48.860;9.188;2022-08-21T05:58:18;18.40;95.00
31819;DHT22;18384;48.860;9.188;2022-08-21T06:00:46;18.50;95.10
31819;DHT22;18384;48.860;9.188;2022-08-21T06:03:19;18.50;95.00
31819;DHT22;18384;48.860;9.188;2022-08-21T06:05:47;18.60;94.70
31819;DHT22;18384;48.860;9.188;2022-08-21T06:08:15;18.70;94.50
31819;DHT22;18384;48.860;9.188;2022-08-21T06:10:43;18.80;94.40
31819;DHT22;18384;48.860;9.188;2022-08-21T06:13:10;18.80;94.40
31819;DHT22;18384;48.860;9.188;2022-08-21T06:15:37;19.00;94.40
31819;DHT22;18384;48.860;9.188;2022-08-21T06:18:03;19.00;94.20
31819;DHT22;18384;48.860;9.188;2022-08-21T06:20:30;19.10;93.60
31819;DHT22;18384;48.860;9.188;2022-08-21T06:22:56;19.10;93.80
31819;DHT22;18384;48.860;9.188;2022-08-21T06:25:23;19.20;93.80
31819;DHT22;18384;48.860;9.188;2022-08-21T06:27:50;19.20;94.00
31819;DHT22;18384;48.860;9.188;2022-08-21T06:30:17;19.20;93.60
31819;DHT22;18384;48.860;9.188;2022-08-21T06:32:43;19.30;93.50
31819;DHT22;18384;48.860;9.188;2022-08-21T06:35:10;19.30;93.40
31819;DHT22;18384;48.860;9.188;2022-08-21T06:37:37;19.40;93.80
31819;DHT22;18384;48.860;9.188;2022-08-21T06:40:04;19.40;93.20
31819;DHT22;18384;48.860;9.188;2022-08-21T06:42:31;19.50;93.80
31819;DHT22;18384;48.860;9.188;2022-08-21T06:44:58;19.50;93.50
31819;DHT22;18384;48.860;9.188;2022-08-21T06:47:24;19.60;93.00
31819;DHT22;18384;48.860;9.188;2022-08-21T06:49:50;19.60;93.00
31819;DHT22;18384;48.860;9.188;2022-08-21T06:52:16;19.60;92.30
31819;DHT22;18384;48.860;9.188;2022-08-21T06:54:42;19.70;92.80
31819;DHT22;18384;48.860;9.188;2022-08-21T06:57:08;19.80;92.30
31819;DHT22;18384;48.860;9.188;2022-08-21T06:59:35;19.80;92.30
31819;DHT22;18384;48.860;9.188;2022-08-21T07:02:01;19.90;91.10
31819;DHT22;18384;48.860;9.188;2022-08-21T07:04:27;20.30;91.00
31819;DHT22;18384;48.860;9.188;2022-08-21T07:06:53;20.00;90.60
31819;DHT22;18384;48.860;9.188;2022-08-21T07:09:19;20.00;90.30
31819;DHT22;18384;48.860;9.188;2022-08-21T07:11:46;20.10;90.40
31819;DHT22;18384;48.860;9.188;2022-08-21T07:14:17;20.10;90.40
31819;DHT22;18384;48.860;9.188;2022-08-21T07:16:43;20.20;89.60
31819;DHT22;18384;48.860;9.188;2022-08-21T07:19:09;20.30;89.80
31819;DHT22;18384;48.860;9.188;2022-08-21T07:21:35;20.40;89.20
31819;DHT22;18384;48.860;9.188;2022-08-21T07:24:02;20.40;87.80
31819;DHT22;18384;48.860;9.188;2022-08-21T07:26:28;20.50;87.40
31819;DHT22;18384;48.860;9.188;2022-08-21T07:28:54;20.50;87.60
31819;DHT22;18384;48.860;9.188;2022-08-21T07:31:22;20.60;87.80
31819;DHT22;18384;48.860;9.188;2022-08-21T07:33:49;20.60;88.80
31819;DHT22;18384;48.860;9.188;2022-08-21T07:36:15;20.70;88.80
31819;DHT22;18384;48.860;9.188;2022-08-21T07:38:41;20.80;88.40
31819;DHT22;18384;48.860;9.188;2022-08-21T07:41:14;20.80;87.60
31819;DHT22;18384;48.860;9.188;2022-08-21T07:43:42;20.90;88.30
31819;DHT22;18384;48.860;9.188;2022-08-21T07:46:09;20.90;88.70
31819;DHT22;18384;48.860;9.188;2022-08-21T07:48:35;21.00;88.10
31819;DHT22;18384;48.860;9.188;2022-08-21T07:51:06;21.00;86.60
31819;DHT22;18384;48.860;9.188;2022-08-21T07:53:35;21.10;86.30
31819;DHT22;18384;48.860;9.188;2022-08-21T07:56:03;21.10;86.30
31819;DHT22;18384;48.860;9.188;2022-08-21T07:58:30;21.20;86.90
31819;DHT22;18384;48.860;9.188;2022-08-21T08:00:57;21.10;85.80
31819;DHT22;18384;48.860;9.188;2022-08-21T08:03:23;21.20;84.90
31819;DHT22;18384;48.860;9.188;2022-08-21T08:05:49;21.20;84.40
31819;DHT22;18384;48.860;9.188;2022-08-21T08:08:15;21.20;85.70
31819;DHT22;18384;48.860;9.188;2022-08-21T08:10:42;21.20;84.80
31819;DHT22;18384;48.860;9.188;2022-08-21T08:13:08;21.30;84.40
31819;DHT22;18384;48.860;9.188;2022-08-21T08:15:35;21.30;84.50
31819;DHT22;18384;48.860;9.188;2022-08-21T08:18:04;21.40;84.50
31819;DHT22;18384;48.860;9.188;2022-08-21T08:20:30;21.40;85.00
31819;DHT22;18384;48.860;9.188;2022-08-21T08:22:56;21.40;84.70
31819;DHT22;18384;48.860;9.188;2022-08-21T08:25:23;21.50;84.60
31819;DHT22;18384;48.860;9.188;2022-08-21T08:27:49;21.50;84.00
31819;DHT22;18384;48.860;9.188;2022-08-21T08:30:16;21.60;84.20
31819;DHT22;18384;48.860;9.188;2022-08-21T08:32:43;21.70;85.20
31819;DHT22;18384;48.860;9.188;2022-08-21T08:35:10;21.70;84.60
31819;DHT22;18384;48.860;9.188;2022-08-21T08:37:39;21.80;82.60
31819;DHT22;18384;48.860;9.188;2022-08-21T08:40:24;21.80;82.70
31819;DHT22;18384;48.860;9.188;2022-08-21T08:43:14;21.80;83.90
31819;DHT22;18384;48.860;9.188;2022-08-21T08:45:42;21.90;82.00
31819;DHT22;18384;48.860;9.188;2022-08-21T08:48:16;21.90;83.40
31819;DHT22;18384;48.860;9.188;2022-08-21T08:50:55;21.90;82.20
31819;DHT22;18384;48.860;9.188;2022-08-21T08:53:35;22.00;82.50
31819;DHT22;18384;48.860;9.188;2022-08-21T08:56:09;22.10;82.50
31819;DHT22;18384;48.860;9.188;2022-08-21T08:58:42;22.10;82.30
31819;DHT22;18384;48.860;9.188;2022-08-21T09:01:20;22.10;82.00
31819;DHT22;18384;48.860;9.188;2022-08-21T09:03:47;22.30;79.90
31819;DHT22;18384;48.860;9.188;2022-08-21T09:07:06;22.40;80.90
31819;DHT22;18384;48.860;9.188;2022-08-21T09:11:04;22.50;80.70
31819;DHT22;18384;48.860;9.188;2022-08-21T09:13:50;22.50;80.90
31819;DHT22;18384;48.860;9.188;2022-08-21T09:19:56;22.70;80.40
31819;DHT22;18384;48.860;9.188;2022-08-21T09:23:08;22.70;78.00
31819;DHT22;18384;48.860;9.188;2022-08-21T09:26:40;22.70;78.00
31819;DHT22;18384;48.860;9.188;2022-08-21T09:29:19;22.90;79.40
31819;DHT22;18384;48.860;9.188;2022-08-21T09:31:47;22.90;77.30
31819;DHT22;18384;48.860;9.188;2022-08-21T09:34:28;22.90;77.70
31819;DHT22;18384;48.860;9.188;2022-08-21T09:36:57;23.00;77.40
31819;DHT22;18384;48.860;9.188;2022-08-21T09:39:30;23.00;77.80
31819;DHT22;18384;48.860;9.188;2022-08-21T09:42:05;23.10;78.70
31819;DHT22;18384;48.860;9.188;2022-08-21T09:44:36;23.10;77.70
31819;DHT22;18384;48.860;9.188;2022-08-21T09:47:10;23.10;77.30
31819;DHT22;18384;48.860;9.188;2022-08-21T09:49:41;23.10;77.70
31819;DHT22;18384;48.860;9.188;2022-08-21T09:53:30;23.20;77.60
31819;DHT22;18384;48.860;9.188;2022-08-21T09:56:04;23.20;75.30
31819;DHT22;18384;48.860;9.188;2022-08-21T09:58:58;24.40;75.80
31819;DHT22;18384;48.860;9.188;2022-08-21T10:01:25;23.20;75.00
31819;DHT22;18384;48.860;9.188;2022-08-21T10:04:10;23.20;74.70
31819;DHT22;18384;48.860;9.188;2022-08-21T10:06:37;23.20;74.00
31819;DHT22;18384;48.860;9.188;2022-08-21T10:09:12;23.20;74.00
31819;DHT22;18384;48.860;9.188;2022-08-21T10:12:06;23.30;74.10
31819;DHT22;18384;48.860;9.188;2022-08-21T10:15:07;23.30;74.20
31819;DHT22;18384;48.860;9.188;2022-08-21T10:18:42;24.40;74.10
31819;DHT22;18384;48.860;9.188;2022-08-21T10:24:26;23.40;73.20
31819;DHT22;18384;48.860;9.188;2022-08-21T10:28:38;23.50;73.50
31819;DHT22;18384;48.860;9.188;2022-08-21T10:31:37;24.40;74.70
31819;DHT22;18384;48.860;9.188;2022-08-21T10:34:31;23.60;72.60
31819;DHT22;18384;48.860;9.188;2022-08-21T10:40:15;23.60;71.60
31819;DHT22;18384;48.860;9.188;2022-08-21T10:43:30;23.70;71.70
31819;DHT22;18384;48.860;9.188;2022-08-21T10:47:42;23.70;71.50
31819;DHT22;18384;48.860;9.188;2022-08-21T10:50:44;23.80;71.70
31819;DHT22;18384;48.860;9.188;2022-08-21T10:54:09;23.90;71.30
31819;DHT22;18384;48.860;9.188;2022-08-21T11:03:37;23.90;70.80
31819;DHT22;18384;48.860;9.188;2022-08-21T11:06:20;24.10;71.60
31819;DHT22;18384;48.860;9.188;2022-08-21T11:09:07;24.10;70.70
31819;DHT22;18384;48.860;9.188;2022-08-21T11:11:52;24.10;70.50
31819;DHT22;18384;48.860;9.188;2022-08-21T11:15:11;24.20;72.50
31819;DHT22;18384;48.860;9.188;2022-08-21T11:18:15;24.40;72.40
31819;DHT22;18384;48.860;9.188;2022-08-21T11:25:52;24.10;69.70
31819;DHT22;18384;48.860;9.188;2022-08-21T11:28:32;24.10;69.50
31819;DHT22;18384;48.860;9.188;2022-08-21T11:31:25;24.10;69.00
31819;DHT22;18384;48.860;9.188;2022-08-21T11:34:19;24.20;67.60
31819;DHT22;18384;48.860;9.188;2022-08-21T11:38:51;24.30;67.60
31819;DHT22;18384;48.860;9.188;2022-08-21T11:41:34;24.30;66.30
31819;DHT22;18384;48.860;9.188;2022-08-21T11:46:02;24.30;68.80
31819;DHT22;18384;48.860;9.188;2022-08-21T11:50:18;24.40;68.80
31819;DHT22;18384;48.860;9.188;2022-08-21T11:52:57;24.50;67.80
31819;DHT22;18384;48.860;9.188;2022-08-21T11:55:43;24.50;66.00
31819;DHT22;18384;48.860;9.188;2022-08-21T11:59:11;24.50;65.60
31819;DHT22;18384;48.860;9.188;2022-08-21T12:01:46;24.50;65.70
31819;DHT22;18384;48.860;9.188;2022-08-21T12:04:35;24.60;66.30
31819;DHT22;18384;48.860;9.188;2022-08-21T12:10:11;24.60;64.50
31819;DHT22;18384;48.860;9.188;2022-08-21T12:12:41;24.70;64.60
31819;DHT22;18384;48.860;9.188;2022-08-21T12:15:26;24.70;64.10
31819;DHT22;18384;48.860;9.188;2022-08-21T12:18:37;24.80;63.50
31819;DHT22;18384;48.860;9.188;2022-08-21T12:21:27;24.70;63.70
31819;DHT22;18384;48.860;9.188;2022-08-21T12:24:19;24.60;64.80
31819;DHT22;18384;48.860;9.188;2022-08-21T12:28:31;24.80;64.30
31819;DHT22;18384;48.860;9.188;2022-08-21T12:30:57;24.80;63.30
31819;DHT22;18384;48.860;9.188;2022-08-21T12:33:38;24.80;64.40
31819;DHT22;18384;48.860;9.188;2022-08-21T12:36:10;24.80;63.10
31819;DHT22;18384;48.860;9.188;2022-08-21T12:41:46;24.90;63.80
31819;DHT22;18384;48.860;9.188;2022-08-21T12:44:24;24.90;65.10
31819;DHT22;18384;48.860;9.188;2022-08-21T12:47:05;25.00;62.80
31819;DHT22;18384;48.860;9.188;2022-08-21T12:49:56;25.00;62.60
31819;DHT22;18384;48.860;9.188;2022-08-21T12:52:30;25.00;62.20
31819;DHT22;18384;48.860;9.188;2022-08-21T12:55:01;24.90;62.10
31819;DHT22;18384;48.860;9.188;2022-08-21T12:57:29;25.00;61.90
31819;DHT22;18384;48.860;9.188;2022-08-21T12:59:58;25.00;61.60
31819;DHT22;18384;48.860;9.188;2022-08-21T13:02:35;25.00;61.90
31819;DHT22;18384;48.860;9.188;2022-08-21T13:05:07;25.00;61.10
31819;DHT22;18384;48.860;9.188;2022-08-21T13:07:37;25.10;60.90
31819;DHT22;18384;48.860;9.188;2022-08-21T13:10:07;25.10;60.80
31819;DHT22;18384;48.860;9.188;2022-08-21T13:12:42;25.20;59.40
31819;DHT22;18384;48.860;9.188;2022-08-21T13:15:10;25.20;59.40
31819;DHT22;18384;48.860;9.188;2022-08-21T13:17:41;25.20;60.40
31819;DHT22;18384;48.860;9.188;2022-08-21T13:20:21;25.20;60.10
31819;DHT22;18384;48.860;9.188;2022-08-21T13:22:50;25.30;60.20
31819;DHT22;18384;48.860;9.188;2022-08-21T13:25:19;25.30;60.10
31819;DHT22;18384;48.860;9.188;2022-08-21T13:28:04;25.30;59.80
31819;DHT22;18384;48.860;9.188;2022-08-21T13:30:39;25.20;59.80
31819;DHT22;18384;48.860;9.188;2022-08-21T13:33:10;25.20;60.40
31819;DHT22;18384;48.860;9.188;2022-08-21T13:37:04;25.20;59.60
31819;DHT22;18384;48.860;9.188;2022-08-21T13:39:34;25.20;59.80
31819;DHT22;18384;48.860;9.188;2022-08-21T13:42:02;25.40;60.00
31819;DHT22;18384;48.860;9.188;2022-08-21T13:44:41;25.40;59.20
31819;DHT22;18384;48.860;9.188;2022-08-21T13:47:12;25.40;58.50
31819;DHT22;18384;48.860;9.188;2022-08-21T13:49:45;25.40;58.90
31819;DHT22;18384;48.860;9.188;2022-08-21T13:52:33;25.50;58.50
31819;DHT22;18384;48.860;9.188;2022-08-21T13:55:18;25.50;58.10
31819;DHT22;18384;48.860;9.188;2022-08-21T13:57:44;25.60;58.80
31819;DHT22;18384;48.860;9.188;2022-08-21T14:00:19;25.60;59.00
31819;DHT22;18384;48.860;9.188;2022-08-21T14:02:52;25.50;59.20
31819;DHT22;18384;48.860;9.188;2022-08-21T14:05:28;25.50;59.40
31819;DHT22;18384;48.860;9.188;2022-08-21T14:08:42;25.50;60.10
31819;DHT22;18384;48.860;9.188;2022-08-21T14:11:57;25.60;58.60
31819;DHT22;18384;48.860;9.188;2022-08-21T14:14:32;25.60;60.20
31819;DHT22;18384;48.860;9.188;2022-08-21T14:17:05;25.70;59.40
31819;DHT22;18384;48.860;9.188;2022-08-21T14:19:42;25.70;58.40
31819;DHT22;18384;48.860;9.188;2022-08-21T14:30:47;25.70;58.40
31819;DHT22;18384;48.860;9.188;2022-08-21T14:33:25;25.90;57.60
31819;DHT22;18384;48.860;9.188;2022-08-21T14:35:54;25.80;57.40
31819;DHT22;18384;48.860;9.188;2022-08-21T14:38:21;25.80;57.80
31819;DHT22;18384;48.860;9.188;2022-08-21T14:40:57;25.80;57.80
31819;DHT22;18384;48.860;9.188;2022-08-21T14:43:27;25.80;57.50
31819;DHT22;18384;48.860;9.188;2022-08-21T14:45:54;25.90;58.00
31819;DHT22;18384;48.860;9.188;2022-08-21T14:48:20;25.90;58.00
31819;DHT22;18384;48.860;9.188;2022-08-21T14:50:46;25.90;57.20
31819;DHT22;18384;48.860;9.188;2022-08-21T14:53:13;25.90;57.90
31819;DHT22;18384;48.860;9.188;2022-08-21T14:55:39;25.80;57.40
31819;DHT22;18384;48.860;9.188;2022-08-21T14:58:24;25.90;58.00
31819;DHT22;18384;48.860;9.188;2022-08-21T15:00:54;25.80;57.20
31819;DHT22;18384;48.860;9.188;2022-08-21T15:03:21;25.80;57.10
31819;DHT22;18384;48.860;9.188;2022-08-21T15:05:47;25.80;57.00
31819;DHT22;18384;48.860;9.188;2022-08-21T15:08:14;25.80;56.80
31819;DHT22;18384;48.860;9.188;2022-08-21T15:10:40;25.80;56.70
31819;DHT22;18384;48.860;9.188;2022-08-21T15:13:07;25.80;56.00
31819;DHT22;18384;48.860;9.188;2022-08-21T15:15:39;25.80;56.50
31819;DHT22;18384;48.860;9.188;2022-08-21T15:18:07;25.80;56.80
31819;DHT22;18384;48.860;9.188;2022-08-21T15:20:35;25.80;57.10
31819;DHT22;18384;48.860;9.188;2022-08-21T15:23:02;25.80;56.40
31819;DHT22;18384;48.860;9.188;2022-08-21T15:25:29;25.70;56.20
31819;DHT22;18384;48.860;9.188;2022-08-21T15:27:55;25.80;56.10
31819;DHT22;18384;48.860;9.188;2022-08-21T15:30:22;25.80;55.90
31819;DHT22;18384;48.860;9.188;2022-08-21T15:32:48;25.70;55.90
31819;DHT22;18384;48.860;9.188;2022-08-21T15:35:14;25.80;56.30
31819;DHT22;18384;48.860;9.188;2022-08-21T15:37:40;25.70;55.50
31819;DHT22;18384;48.860;9.188;2022-08-21T15:40:06;25.70;55.90
31819;DHT22;18384;48.860;9.188;2022-08-21T15:42:33;25.70;56.10
31819;DHT22;18384;48.860;9.188;2022-08-21T15:45:00;25.70;55.80
31819;DHT22;18384;48.860;9.188;2022-08-21T15:47:32;25.60;55.90
31819;DHT22;18384;48.860;9.188;2022-08-21T15:50:01;25.60;55.80
31819;DHT22;18384;48.860;9.188;2022-08-21T15:52:29;25.60;55.70
31819;DHT22;18384;48.860;9.188;2022-08-21T15:54:55;25.50;55.70
31819;DHT22;18384;48.860;9.188;2022-08-21T15:57:23;25.40;56.20
31819;DHT22;18384;48.860;9.188;2022-08-21T15:59:58;25.40;56.90
31819;DHT22;18384;48.860;9.188;2022-08-21T16:02:35;25.30;56.10
31819;DHT22;18384;48.860;9.188;2022-08-21T16:05:02;25.30;56.10
31819;DHT22;18384;48.860;9.188;2022-08-21T16:07:28;25.20;57.80
31819;DHT22;18384;48.860;9.188;2022-08-21T16:09:54;25.20;57.00
31819;DHT22;18384;48.860;9.188;2022-08-21T16:12:27;25.10;56.70
31819;DHT22;18384;48.860;9.188;2022-08-21T16:14:57;25.10;56.80
31819;DHT22;18384;48.860;9.188;2022-08-21T16:17:30;25.10;57.30
31819;DHT22;18384;48.860;9.188;2022-08-21T16:20:06;25.10;56.50
31819;DHT22;18384;48.860;9.188;2022-08-21T16:22:36;25.00;56.30
31819;DHT22;18384;48.860;9.188;2022-08-21T16:25:03;25.00;57.40
31819;DHT22;18384;48.860;9.188;2022-08-21T16:27:30;25.10;56.70
31819;DHT22;18384;48.860;9.188;2022-08-21T16:29:57;25.10;56.70
31819;DHT22;18384;48.860;9.188;2022-08-21T16:32:23;25.00;56.70
31819;DHT22;18384;48.860;9.188;2022-08-21T16:34:49;25.00;57.10
31819;DHT22;18384;48.860;9.188;2022-08-21T16:37:16;25.00;56.70
31819;DHT22;18384;48.860;9.188;2022-08-21T16:39:43;25.00;56.80
31819;DHT22;18384;48.860;9.188;2022-08-21T16:42:12;25.00;57.40
31819;DHT22;18384;48.860;9.188;2022-08-21T16:44:41;25.00;56.60
31819;DHT22;18384;48.860;9.188;2022-08-21T16:47:07;25.00;56.50
31819;DHT22;18384;48.860;9.188;2022-08-21T16:49:34;25.00;56.90